createdAt,value
2023-02-28T00:01:36.670Z,12.76
2023-02-28T00:04:03.069Z,12.76
2023-02-28T00:06:29.442Z,12.75
2023-02-28T00:08:55.777Z,12.76
2023-02-28T00:11:22.109Z,12.77
2023-02-28T00:13:48.543Z,12.77
2023-02-28T00:16:14.915Z,12.77
2023-02-28T00:18:41.241Z,12.76
2023-02-28T00:21:07.602Z,12.75
2023-02-28T00:23:33.987Z,12.75
2023-02-28T00:26:00.301Z,12.75
2023-02-28T00:28:27.022Z,12.74
2023-02-28T00:30:53.564Z,12.73
2023-02-28T00:33:19.751Z,12.74
2023-02-28T00:35:46.104Z,12.75
2023-02-28T00:38:12.477Z,12.75
2023-02-28T00:40:38.816Z,12.75
2023-02-28T00:43:05.145Z,12.75
2023-02-28T00:45:31.523Z,12.74
2023-02-28T00:47:57.858Z,12.73
2023-02-28T00:50:24.220Z,12.73
2023-02-28T00:52:50.695Z,12.71
2023-02-28T00:55:17.058Z,12.70
2023-02-28T00:57:43.404Z,12.69
2023-02-28T01:00:09.728Z,12.64
2023-02-28T01:02:36.071Z,12.63
2023-02-28T01:05:02.400Z,12.62
2023-02-28T01:07:28.776Z,12.60
2023-02-28T01:09:55.139Z,12.57
2023-02-28T01:12:21.509Z,12.56
2023-02-28T01:14:47.832Z,12.55
2023-02-28T01:17:14.178Z,12.52
2023-02-28T01:19:40.555Z,12.48
2023-02-28T01:22:06.885Z,12.46
2023-02-28T01:24:34.439Z,12.43
2023-02-28T01:26:59.672Z,12.41
2023-02-28T01:29:26.030Z,12.38
2023-02-28T01:31:52.499Z,12.35
2023-02-28T01:34:18.790Z,12.33
2023-02-28T01:36:45.126Z,12.31
2023-02-28T01:39:11.461Z,12.29
2023-02-28T01:41:37.820Z,12.27
2023-02-28T01:44:04.215Z,12.26
2023-02-28T01:46:30.602Z,12.25
2023-02-28T01:48:56.892Z,12.24
2023-02-28T01:51:23.288Z,12.23
2023-02-28T01:53:49.658Z,12.22
2023-02-28T01:56:16.044Z,12.21
2023-02-28T01:58:42.365Z,12.20
2023-02-28T02:01:08.761Z,12.20
2023-02-28T02:03:35.069Z,12.20
2023-02-28T02:06:01.463Z,12.20
2023-02-28T02:08:27.916Z,12.18
2023-02-28T02:10:54.301Z,12.17
2023-02-28T02:13:20.632Z,12.17
2023-02-28T02:15:47.033Z,12.14
2023-02-28T02:18:13.371Z,12.13
2023-02-28T02:20:39.694Z,12.12
2023-02-28T02:23:06.042Z,12.11
2023-02-28T02:25:32.424Z,12.11
2023-02-28T02:27:58.740Z,12.10
2023-02-28T02:30:25.140Z,12.10
2023-02-28T02:32:51.485Z,12.09
2023-02-28T02:35:17.869Z,12.09
2023-02-28T02:37:44.258Z,12.08
2023-02-28T02:40:10.595Z,12.08
2023-02-28T02:42:36.931Z,12.09
2023-02-28T02:45:03.320Z,12.09
2023-02-28T02:47:29.710Z,12.09
2023-02-28T02:49:56.053Z,12.08
2023-02-28T02:52:22.408Z,12.09
2023-02-28T02:54:48.770Z,12.08
2023-02-28T02:57:15.101Z,12.10
2023-02-28T02:59:41.447Z,12.11
2023-02-28T03:02:07.800Z,12.12
2023-02-28T03:04:34.185Z,12.13
2023-02-28T03:07:00.557Z,12.14
2023-02-28T03:09:26.924Z,12.16
2023-02-28T03:11:53.299Z,12.15
2023-02-28T03:14:19.618Z,12.18
2023-02-28T03:16:45.983Z,12.18
2023-02-28T03:19:12.399Z,12.17
2023-02-28T03:21:38.752Z,12.18
2023-02-28T03:24:05.131Z,12.18
2023-02-28T03:26:31.476Z,12.18
2023-02-28T03:28:57.854Z,12.20
2023-02-28T03:31:24.185Z,12.21
2023-02-28T03:33:50.618Z,12.21
2023-02-28T03:36:16.973Z,12.21
2023-02-28T03:38:43.357Z,12.23
2023-02-28T03:41:09.724Z,12.22
2023-02-28T03:43:36.091Z,12.22
2023-02-28T03:46:02.461Z,12.23
2023-02-28T03:48:28.840Z,12.24
2023-02-28T03:50:55.184Z,12.24
2023-02-28T03:53:21.528Z,12.24
2023-02-28T03:55:47.886Z,12.24
2023-02-28T03:58:14.334Z,12.24
2023-02-28T04:00:40.665Z,12.24
2023-02-28T04:03:07.053Z,12.25
2023-02-28T04:05:33.409Z,12.26
2023-02-28T04:07:59.779Z,12.27
2023-02-28T04:10:26.136Z,12.27
2023-02-28T04:12:52.488Z,12.26
2023-02-28T04:15:18.858Z,12.26
2023-02-28T04:17:45.195Z,12.26
2023-02-28T04:20:11.565Z,12.26
2023-02-28T04:22:37.897Z,12.27
2023-02-28T04:25:04.226Z,12.26
2023-02-28T04:27:32.665Z,12.25
2023-02-28T04:29:56.951Z,12.25
2023-02-28T04:32:23.353Z,12.26
2023-02-28T04:34:49.633Z,12.26
2023-02-28T04:37:15.995Z,12.27
2023-02-28T04:39:42.311Z,12.26
2023-02-28T04:42:08.673Z,12.26
2023-02-28T04:44:34.985Z,12.26
2023-02-28T04:47:01.410Z,12.26
2023-02-28T04:49:27.768Z,12.27
2023-02-28T04:51:54.164Z,12.27
2023-02-28T04:54:20.538Z,12.27
2023-02-28T04:56:46.913Z,12.26
2023-02-28T04:59:13.227Z,12.25
2023-02-28T05:01:39.581Z,12.25
2023-02-28T05:04:05.929Z,12.34
2023-02-28T05:06:32.556Z,12.37
2023-02-28T05:08:58.933Z,12.35
2023-02-28T05:11:25.295Z,12.34
2023-02-28T05:13:51.609Z,12.33
2023-02-28T05:16:18.002Z,12.30
2023-02-28T05:18:44.355Z,12.29
2023-02-28T05:21:10.669Z,12.28
2023-02-28T05:23:37.028Z,12.27
2023-02-28T05:26:03.647Z,12.27
2023-02-28T05:28:29.969Z,12.26
2023-02-28T05:30:56.310Z,12.24
2023-02-28T05:33:22.686Z,12.23
2023-02-28T05:35:49.103Z,12.45
2023-02-28T05:38:15.397Z,13.25
2023-02-28T05:40:41.762Z,13.85
2023-02-28T05:43:08.217Z,14.26
2023-02-28T05:45:34.550Z,14.41
2023-02-28T05:48:01.458Z,14.48
2023-02-28T05:50:27.784Z,14.53
2023-02-28T05:52:54.354Z,14.62
2023-02-28T05:55:20.715Z,14.49
2023-02-28T05:57:47.137Z,14.31
2023-02-28T06:00:13.466Z,14.11
2023-02-28T06:02:39.908Z,14.01
2023-02-28T06:05:06.586Z,13.93
2023-02-28T06:07:32.974Z,13.90
2023-02-28T06:09:59.332Z,13.86
2023-02-28T06:12:25.726Z,13.84
2023-02-28T06:14:52.054Z,13.85
2023-02-28T06:17:18.406Z,13.86
2023-02-28T06:19:44.783Z,13.90
2023-02-28T06:22:11.166Z,13.90
2023-02-28T06:24:37.532Z,13.91
2023-02-28T06:27:03.942Z,13.90
2023-02-28T06:29:30.227Z,13.90
2023-02-28T06:31:56.648Z,13.93
2023-02-28T06:34:22.948Z,13.92
2023-02-28T06:36:49.294Z,13.92
2023-02-28T06:39:15.625Z,13.91
2023-02-28T06:41:54.288Z,13.91
2023-02-28T06:44:08.363Z,13.92
2023-02-28T06:46:34.816Z,13.89
2023-02-28T06:49:01.306Z,13.83
2023-02-28T06:51:28.040Z,13.82
2023-02-28T06:53:54.022Z,13.84
2023-02-28T06:56:20.526Z,13.88
2023-02-28T06:58:46.881Z,13.92
2023-02-28T07:01:13.282Z,13.97
2023-02-28T07:03:39.614Z,14.02
2023-02-28T07:06:05.954Z,14.06
2023-02-28T07:08:32.334Z,14.10
2023-02-28T07:10:58.787Z,14.10
2023-02-28T07:13:25.157Z,14.11
2023-02-28T07:15:51.528Z,14.11
2023-02-28T07:18:17.987Z,14.13
2023-02-28T07:20:44.335Z,14.16
2023-02-28T07:23:10.756Z,14.17
2023-02-28T07:25:37.144Z,14.19
2023-02-28T07:28:03.454Z,14.20
2023-02-28T07:30:29.811Z,14.21
2023-02-28T07:32:56.265Z,14.24
2023-02-28T07:35:22.757Z,14.27
2023-02-28T07:37:49.041Z,14.32
2023-02-28T07:40:15.437Z,14.41
2023-02-28T07:42:41.806Z,14.50
2023-02-28T07:45:08.463Z,14.58
2023-02-28T07:47:34.821Z,14.64
2023-02-28T07:50:01.213Z,14.69
2023-02-28T07:52:27.529Z,14.69
2023-02-28T07:54:53.927Z,14.64
2023-02-28T07:57:20.247Z,14.61
2023-02-28T07:59:46.640Z,14.63
2023-02-28T08:02:13.036Z,14.67
2023-02-28T08:04:39.408Z,14.73
2023-02-28T08:07:05.732Z,14.83
2023-02-28T08:09:32.163Z,14.94
2023-02-28T08:11:58.480Z,15.04
2023-02-28T08:14:24.874Z,15.11
2023-02-28T08:16:51.187Z,15.19
2023-02-28T08:19:17.586Z,15.27
2023-02-28T08:21:43.959Z,15.34
2023-02-28T08:24:10.292Z,15.44
2023-02-28T08:26:37.938Z,15.53
2023-02-28T08:29:04.305Z,15.64
2023-02-28T08:31:30.960Z,15.75
2023-02-28T08:33:57.003Z,15.85
2023-02-28T08:36:23.455Z,15.96
2023-02-28T08:38:49.754Z,16.06
2023-02-28T08:41:16.131Z,16.16
2023-02-28T08:43:42.560Z,16.29
2023-02-28T08:46:09.003Z,16.41
2023-02-28T08:48:35.359Z,16.53
2023-02-28T08:51:09.020Z,16.65
2023-02-28T08:53:28.151Z,16.77
2023-02-28T08:55:54.507Z,16.91
2023-02-28T08:58:20.858Z,17.03
2023-02-28T09:00:47.226Z,17.19
2023-02-28T09:03:13.550Z,17.32
2023-02-28T09:05:39.942Z,17.42
2023-02-28T09:08:06.328Z,17.52
2023-02-28T09:10:32.686Z,17.60
2023-02-28T09:12:59.034Z,17.65
2023-02-28T09:15:25.402Z,17.69
2023-02-28T09:17:51.818Z,17.72
2023-02-28T09:20:18.246Z,17.78
2023-02-28T09:22:44.698Z,17.85
2023-02-28T09:25:11.000Z,17.98
2023-02-28T09:27:37.410Z,18.07
2023-02-28T09:30:03.858Z,18.18
2023-02-28T09:32:30.279Z,18.35
2023-02-28T09:34:56.602Z,18.53
2023-02-28T09:37:23.015Z,18.65
2023-02-28T09:39:49.382Z,18.90
2023-02-28T09:42:15.711Z,19.13
2023-02-28T09:44:43.865Z,19.36
2023-02-28T09:47:08.440Z,19.51
2023-02-28T09:49:34.771Z,19.63
2023-02-28T09:52:01.159Z,19.74
2023-02-28T09:54:27.530Z,19.93
2023-02-28T09:56:53.878Z,20.23
2023-02-28T09:59:20.222Z,20.45
2023-02-28T10:01:46.663Z,20.61
2023-02-28T10:04:12.981Z,20.72
2023-02-28T10:06:39.339Z,20.82
2023-02-28T10:09:05.702Z,20.87
2023-02-28T10:11:32.772Z,20.92
2023-02-28T10:13:58.518Z,20.97
2023-02-28T10:16:24.901Z,21.03
2023-02-28T10:18:51.459Z,21.12
2023-02-28T10:21:17.852Z,21.27
2023-02-28T10:23:44.167Z,21.41
2023-02-28T10:26:10.522Z,21.52
2023-02-28T10:28:36.858Z,21.67
2023-02-28T10:31:03.336Z,21.87
2023-02-28T10:33:29.680Z,22.13
2023-02-28T10:35:56.037Z,22.38
2023-02-28T10:38:22.387Z,22.62
2023-02-28T10:40:48.769Z,22.88
2023-02-28T10:43:15.122Z,23.09
2023-02-28T10:45:42.116Z,23.25
2023-02-28T10:48:08.466Z,23.48
2023-02-28T10:50:34.942Z,23.69
2023-02-28T10:53:01.293Z,23.73
2023-02-28T10:55:27.638Z,23.79
2023-02-28T10:57:53.961Z,23.86
2023-02-28T11:00:20.359Z,23.99
2023-02-28T11:02:46.704Z,24.16
2023-02-28T11:05:13.084Z,24.32
2023-02-28T11:07:50.511Z,24.43
2023-02-28T11:10:06.028Z,24.54
2023-02-28T11:12:34.009Z,24.63
2023-02-28T11:14:59.209Z,24.67
2023-02-28T11:17:25.557Z,24.72
2023-02-28T11:19:51.953Z,24.80
2023-02-28T11:22:18.391Z,24.93
2023-02-28T11:24:44.921Z,25.01
2023-02-28T11:27:11.235Z,25.04
2023-02-28T11:29:37.574Z,25.11
2023-02-28T11:32:04.057Z,25.22
2023-02-28T11:34:30.502Z,25.33
2023-02-28T11:36:56.943Z,25.46
2023-02-28T11:39:23.563Z,25.55
2023-02-28T11:41:49.888Z,25.60
2023-02-28T11:44:16.300Z,25.61
2023-02-28T11:46:42.691Z,25.60
2023-02-28T11:49:09.008Z,25.60
2023-02-28T11:51:35.424Z,25.61
2023-02-28T11:54:01.805Z,25.66
2023-02-28T11:56:28.118Z,25.73
2023-02-28T11:58:54.531Z,25.80
2023-02-28T12:01:20.840Z,25.86
2023-02-28T12:03:47.187Z,25.89
2023-02-28T12:06:13.592Z,25.93
2023-02-28T12:08:39.941Z,25.92
2023-02-28T12:11:06.302Z,25.91
2023-02-28T12:13:32.648Z,25.88
2023-02-28T12:15:59.034Z,25.88
2023-02-28T12:18:25.396Z,25.91
2023-02-28T12:20:52.065Z,25.90
2023-02-28T12:23:18.410Z,25.87
2023-02-28T12:25:44.769Z,25.82
2023-02-28T12:28:11.199Z,25.72
2023-02-28T12:30:37.513Z,25.63
2023-02-28T12:33:03.946Z,25.52
2023-02-28T12:35:30.350Z,25.45
2023-02-28T12:37:56.710Z,25.37
2023-02-28T12:40:23.082Z,25.29
2023-02-28T12:42:49.440Z,25.21
2023-02-28T12:45:15.772Z,25.12
2023-02-28T12:47:42.156Z,25.01
2023-02-28T12:50:08.518Z,24.85
2023-02-28T12:52:34.852Z,24.73
2023-02-28T12:55:01.377Z,24.60
2023-02-28T12:57:27.796Z,24.45
2023-02-28T12:59:54.122Z,24.33
2023-02-28T13:02:20.613Z,24.21
2023-02-28T13:04:47.004Z,24.10
2023-02-28T13:07:13.377Z,24.00
2023-02-28T13:09:39.774Z,23.93
2023-02-28T13:12:06.168Z,23.85
2023-02-28T13:14:32.474Z,23.77
2023-02-28T13:16:58.986Z,23.71
2023-02-28T13:19:25.281Z,23.63
2023-02-28T13:21:51.665Z,23.53
2023-02-28T13:24:18.030Z,23.45
2023-02-28T13:26:44.792Z,23.36
2023-02-28T13:29:11.058Z,23.30
2023-02-28T13:31:37.473Z,23.20
2023-02-28T13:34:03.853Z,23.23
2023-02-28T13:36:30.275Z,23.21
2023-02-28T13:38:56.787Z,23.08
2023-02-28T13:41:23.120Z,22.79
2023-02-28T13:43:49.563Z,22.64
2023-02-28T13:46:16.033Z,22.54
2023-02-28T13:48:42.301Z,22.45
2023-02-28T13:51:08.690Z,22.39
2023-02-28T13:53:35.125Z,22.33
2023-02-28T13:56:01.498Z,22.23
2023-02-28T13:58:27.809Z,22.20
2023-02-28T14:00:54.186Z,22.24
2023-02-28T14:03:20.592Z,22.20
2023-02-28T14:05:47.106Z,21.82
2023-02-28T14:08:13.345Z,20.85
2023-02-28T14:10:39.706Z,20.22
2023-02-28T14:13:06.069Z,19.61
2023-02-28T14:15:33.633Z,18.72
2023-02-28T14:17:59.986Z,18.67
2023-02-28T14:20:26.360Z,18.63
2023-02-28T14:22:52.723Z,18.41
2023-02-28T14:25:19.075Z,18.33
2023-02-28T14:27:45.599Z,18.34
2023-02-28T14:30:11.989Z,18.16
2023-02-28T14:32:38.634Z,17.99
2023-02-28T14:35:05.212Z,17.84
2023-02-28T14:37:31.568Z,17.63
2023-02-28T14:39:57.952Z,17.49
2023-02-28T14:42:24.513Z,17.34
2023-02-28T14:44:50.891Z,17.33
2023-02-28T14:47:17.210Z,17.31
2023-02-28T14:49:43.621Z,17.24
2023-02-28T14:52:09.973Z,17.07
2023-02-28T14:54:36.319Z,17.02
2023-02-28T14:57:02.700Z,17.02
2023-02-28T14:59:29.038Z,17.04
2023-02-28T15:01:55.400Z,16.82
2023-02-28T15:04:21.876Z,16.65
2023-02-28T15:06:48.156Z,16.64
2023-02-28T15:09:14.881Z,16.68
2023-02-28T15:11:41.275Z,16.80
2023-02-28T15:14:07.605Z,16.89
2023-02-28T15:16:34.005Z,16.97
2023-02-28T15:19:00.353Z,16.97
2023-02-28T15:21:26.675Z,16.95
2023-02-28T15:23:53.061Z,16.90
2023-02-28T15:26:19.423Z,16.84
2023-02-28T15:28:45.768Z,16.74
2023-02-28T15:31:12.143Z,16.77
2023-02-28T15:33:38.533Z,16.71
2023-02-28T15:36:04.987Z,16.67
2023-02-28T15:38:31.637Z,16.64
2023-02-28T15:40:58.061Z,16.55
2023-02-28T15:43:24.412Z,16.42
2023-02-28T15:45:53.023Z,16.44
2023-02-28T15:48:19.355Z,16.41
2023-02-28T15:50:46.563Z,16.37
2023-02-28T15:53:12.953Z,16.30
2023-02-28T15:55:39.281Z,16.28
2023-02-28T15:58:05.750Z,16.19
2023-02-28T16:00:32.146Z,16.08
2023-02-28T16:02:58.742Z,15.97
2023-02-28T16:05:24.964Z,15.96
2023-02-28T16:07:51.392Z,15.86
2023-02-28T16:10:17.725Z,15.89
2023-02-28T16:12:44.365Z,15.99
2023-02-28T16:15:12.233Z,16.07
2023-02-28T16:17:38.560Z,16.12
2023-02-28T16:20:04.971Z,16.15
2023-02-28T16:22:31.312Z,16.18
2023-02-28T16:24:57.671Z,16.21
2023-02-28T16:27:24.091Z,16.17
2023-02-28T16:29:50.486Z,16.14
2023-02-28T16:32:16.887Z,16.05
2023-02-28T16:34:43.296Z,16.00
2023-02-28T16:37:09.993Z,15.87
2023-02-28T16:39:36.387Z,15.75
2023-02-28T16:42:02.734Z,15.64
2023-02-28T16:44:29.279Z,15.57
2023-02-28T16:46:55.634Z,15.49
2023-02-28T16:49:22.088Z,15.42
2023-02-28T16:51:48.405Z,15.36
2023-02-28T16:54:14.749Z,15.30
2023-02-28T16:56:41.132Z,15.23
2023-02-28T16:59:07.469Z,15.17
2023-02-28T17:01:34.496Z,15.13
2023-02-28T17:04:00.374Z,15.07
2023-02-28T17:06:28.227Z,15.02
2023-02-28T17:08:54.029Z,14.98
2023-02-28T17:11:20.853Z,14.94
2023-02-28T17:13:47.211Z,14.89
2023-02-28T17:16:13.598Z,14.84
2023-02-28T17:18:39.991Z,14.78
2023-02-28T17:21:07.062Z,14.74
2023-02-28T17:23:33.447Z,14.70
2023-02-28T17:25:59.807Z,14.66
2023-02-28T17:28:26.192Z,14.62
2023-02-28T17:30:52.578Z,14.56
2023-02-28T17:33:19.093Z,14.55
2023-02-28T17:35:45.586Z,14.51
2023-02-28T17:38:12.030Z,14.46
2023-02-28T17:40:38.345Z,14.41
2023-02-28T17:43:04.704Z,14.35
2023-02-28T17:45:32.014Z,14.32
2023-02-28T17:47:59.571Z,14.28
2023-02-28T17:50:25.894Z,14.25
2023-02-28T17:52:52.262Z,14.21
2023-02-28T17:55:18.574Z,14.17
2023-02-28T17:57:45.117Z,14.14
2023-02-28T18:00:11.470Z,14.09
2023-02-28T18:02:37.863Z,14.06
2023-02-28T18:05:04.236Z,14.03
2023-02-28T18:07:30.737Z,13.98
2023-02-28T18:09:57.090Z,13.95
2023-02-28T18:12:23.485Z,13.91
2023-02-28T18:14:49.873Z,13.88
2023-02-28T18:17:16.435Z,13.86
2023-02-28T18:19:42.759Z,13.82
2023-02-28T18:22:09.154Z,13.80
2023-02-28T18:24:35.535Z,13.77
2023-02-28T18:27:01.852Z,13.75
2023-02-28T18:29:28.329Z,13.72
2023-02-28T18:31:55.100Z,13.69
2023-02-28T18:34:21.691Z,13.66
2023-02-28T18:36:48.070Z,13.64
2023-02-28T18:39:14.741Z,13.62
2023-02-28T18:41:41.109Z,13.60
2023-02-28T18:44:17.732Z,13.59
2023-02-28T18:46:34.188Z,13.58
2023-02-28T18:49:00.449Z,13.57
2023-02-28T18:51:26.787Z,13.55
2023-02-28T18:53:53.195Z,13.53
2023-02-28T18:56:19.870Z,13.53
2023-02-28T18:58:46.192Z,13.51
2023-02-28T19:01:12.724Z,13.49
2023-02-28T19:03:39.076Z,13.48
2023-02-28T19:06:05.427Z,13.46
2023-02-28T19:08:31.885Z,13.43
2023-02-28T19:10:58.183Z,13.42
2023-02-28T19:13:24.549Z,13.38
2023-02-28T19:15:53.758Z,13.38
2023-02-28T19:18:17.330Z,13.38
2023-02-28T19:20:43.640Z,13.36
2023-02-28T19:23:09.956Z,13.35
2023-02-28T19:25:36.302Z,13.33
2023-02-28T19:28:02.697Z,13.31
2023-02-28T19:30:29.036Z,13.30
2023-02-28T19:32:55.467Z,13.28
2023-02-28T19:35:21.820Z,13.27
2023-02-28T19:37:48.223Z,13.33
2023-02-28T19:40:14.925Z,13.73
2023-02-28T19:42:41.283Z,13.75
2023-02-28T19:45:07.952Z,13.67
2023-02-28T19:47:34.273Z,13.57
2023-02-28T19:50:00.695Z,13.49
2023-02-28T19:52:26.992Z,13.42
2023-02-28T19:54:53.488Z,13.39
2023-02-28T19:57:20.013Z,13.33
2023-02-28T19:59:46.367Z,13.29
2023-02-28T20:02:12.684Z,13.26
2023-02-28T20:04:39.201Z,13.24
2023-02-28T20:07:05.441Z,13.22
2023-02-28T20:09:31.968Z,13.19
2023-02-28T20:11:58.386Z,13.18
2023-02-28T20:14:24.723Z,13.15
2023-02-28T20:16:51.115Z,13.13
2023-02-28T20:19:17.474Z,13.13
2023-02-28T20:21:43.861Z,13.11
2023-02-28T20:24:10.216Z,13.10
2023-02-28T20:26:36.593Z,13.09
2023-02-28T20:29:02.927Z,13.08
2023-02-28T20:31:29.359Z,13.06
2023-02-28T20:33:55.703Z,13.06
2023-02-28T20:36:22.082Z,13.03
2023-02-28T20:38:48.440Z,13.00
2023-02-28T20:41:14.827Z,12.99
2023-02-28T20:43:41.196Z,12.98
2023-02-28T20:46:07.566Z,13.05
2023-02-28T20:48:33.883Z,13.16
2023-02-28T20:51:00.222Z,13.13
2023-02-28T20:53:26.575Z,13.09
2023-02-28T20:55:52.904Z,13.06
2023-02-28T20:58:19.288Z,13.02
2023-02-28T21:00:45.947Z,12.98
2023-02-28T21:03:12.291Z,12.94
2023-02-28T21:05:38.650Z,12.93
2023-02-28T21:08:05.064Z,12.92
2023-02-28T21:10:31.384Z,12.89
2023-02-28T21:12:57.780Z,12.89
2023-02-28T21:15:24.156Z,12.88
2023-02-28T21:17:50.511Z,12.86
2023-02-28T21:20:16.820Z,12.84
2023-02-28T21:22:43.192Z,12.82
2023-02-28T21:25:09.571Z,12.80
2023-02-28T21:27:35.953Z,12.79
2023-02-28T21:30:04.053Z,12.79
2023-02-28T21:32:28.675Z,12.79
2023-02-28T21:34:54.998Z,12.78
2023-02-28T21:37:21.392Z,12.77
2023-02-28T21:39:47.764Z,12.77
2023-02-28T21:42:14.113Z,12.76
2023-02-28T21:44:40.450Z,12.72
2023-02-28T21:47:07.956Z,12.73
2023-02-28T21:49:34.306Z,12.71
2023-02-28T21:52:00.727Z,12.71
2023-02-28T21:54:27.072Z,12.70
2023-02-28T21:56:53.532Z,12.69
2023-02-28T21:59:19.854Z,12.66
2023-02-28T22:01:46.325Z,12.64
2023-02-28T22:04:14.786Z,12.64
2023-02-28T22:06:41.173Z,12.64
2023-02-28T22:09:07.979Z,12.62
2023-02-28T22:11:34.305Z,12.60
2023-02-28T22:14:00.674Z,12.59
2023-02-28T22:16:28.161Z,12.58
2023-02-28T22:18:53.438Z,12.56
2023-02-28T22:21:19.831Z,12.56
2023-02-28T22:23:46.161Z,12.56
2023-02-28T22:26:12.507Z,12.55
2023-02-28T22:28:38.877Z,12.53
2023-02-28T22:31:05.231Z,12.51
2023-02-28T22:33:31.708Z,12.51
2023-02-28T22:35:58.041Z,12.50
2023-02-28T22:38:24.405Z,12.48
2023-02-28T22:40:50.822Z,12.47
2023-02-28T22:43:19.661Z,12.45
2023-02-28T22:45:46.040Z,12.43
2023-02-28T22:48:12.840Z,12.42
2023-02-28T22:50:39.178Z,12.41
2023-02-28T22:53:05.643Z,12.39
2023-02-28T22:55:32.066Z,12.39
2023-02-28T22:57:58.409Z,12.37
2023-02-28T23:00:24.786Z,12.34
2023-02-28T23:02:51.140Z,12.34
2023-02-28T23:05:17.490Z,12.32
2023-02-28T23:07:43.865Z,12.32
2023-02-28T23:10:10.200Z,12.31
2023-02-28T23:12:36.593Z,12.30
2023-02-28T23:15:02.943Z,12.29
2023-02-28T23:17:29.252Z,12.29
2023-02-28T23:19:55.673Z,12.27
2023-02-28T23:22:22.004Z,12.26
2023-02-28T23:24:48.342Z,12.24
2023-02-28T23:27:14.680Z,12.21
2023-02-28T23:29:42.043Z,12.20
2023-02-28T23:32:07.456Z,12.18
2023-02-28T23:34:33.731Z,12.15
2023-02-28T23:37:00.124Z,12.14
2023-02-28T23:39:26.474Z,12.11
2023-02-28T23:41:52.833Z,12.08
2023-02-28T23:44:19.208Z,12.06
2023-02-28T23:46:45.642Z,12.06
2023-02-28T23:49:11.968Z,12.05
2023-02-28T23:51:38.338Z,12.03
2023-02-28T23:54:04.712Z,12.02
2023-02-28T23:56:31.385Z,12.00
2023-02-28T23:58:57.461Z,11.98
